Time;durP1;ratioP1;P1;durP2;ratioP2;P2;SDS_P1;SDS_P2;PMS_P1;PMS_P2;Temp;Humidity;BMP_temperature;BMP_pressure;BME280_temperature;BME280_humidity;BME280_pressure;Samples;Min_cycle;Max_cycle;Signal;HPM_P1;HPM_P2
2022/04/11 00:00:47;;;;;;;7.03;5.33;;;4.60;99.90;;;;;;5011682;28;20230;-82
2022/04/11 00:03:14;;;;;;;8.30;5.43;;;4.60;99.90;;;;;;5010549;28;20207;-78
2022/04/11 00:05:41;;;;;;;6.83;4.87;;;4.60;99.90;;;;;;5017632;28;20759;-80
2022/04/11 00:08:08;;;;;;;5.93;4.77;;;4.60;99.90;;;;;;5030703;28;20896;-78
2022/04/11 00:10:35;;;;;;;7.70;4.87;;;4.60;99.90;;;;;;5025863;28;20210;-81
2022/04/11 00:13:02;;;;;;;7.23;4.83;;;4.60;99.90;;;;;;5011881;28;20199;-81
2022/04/11 00:15:33;;;;;;;6.10;4.40;;;4.60;99.90;;;;;;5012408;28;20239;-82
2022/04/11 00:18:01;;;;;;;8.37;5.43;;;4.50;99.90;;;;;;5012801;28;20195;-82
2022/04/11 00:20:28;;;;;;;7.40;5.80;;;4.50;99.90;;;;;;5020049;28;20316;-83
2022/04/11 00:22:55;;;;;;;9.00;5.53;;;4.50;99.90;;;;;;5027726;28;20200;-76
2022/04/11 00:25:22;;;;;;;8.87;5.57;;;4.40;99.90;;;;;;5027575;28;20586;-82
2022/04/11 00:27:49;;;;;;;8.63;5.33;;;4.40;99.90;;;;;;5030282;28;20211;-80
2022/04/11 00:30:16;;;;;;;6.57;4.60;;;4.40;99.90;;;;;;5032108;28;20213;-82
2022/04/11 00:32:45;;;;;;;6.13;4.33;;;4.40;99.90;;;;;;5031816;28;20290;-82
2022/04/11 00:35:12;;;;;;;7.07;4.90;;;4.40;99.90;;;;;;5030222;28;20270;-81
2022/04/11 00:37:39;;;;;;;6.53;4.90;;;4.40;99.90;;;;;;5018689;28;20215;-81
2022/04/11 00:40:08;;;;;;;7.40;5.10;;;4.30;99.90;;;;;;5011009;28;20199;-81
2022/04/11 00:42:35;;;;;;;6.03;4.53;;;4.30;99.90;;;;;;5011837;28;20595;-79
2022/04/11 00:45:03;;;;;;;6.27;4.80;;;4.30;99.90;;;;;;5012306;28;20203;-82
2022/04/11 00:47:30;;;;;;;8.97;5.00;;;4.30;99.90;;;;;;5010633;28;20266;-81
2022/04/11 00:50:02;;;;;;;5.57;4.53;;;4.30;99.90;;;;;;5011003;28;20591;-81
2022/04/11 00:52:31;;;;;;;5.87;5.27;;;4.30;99.90;;;;;;5015912;28;20206;-82
2022/04/11 00:54:59;;;;;;;8.10;5.20;;;4.30;99.90;;;;;;5031832;28;20326;-81
2022/04/11 00:57:27;;;;;;;6.27;4.93;;;4.20;99.90;;;;;;5031260;28;20206;-78
2022/04/11 00:59:54;;;;;;;6.17;4.20;;;4.20;99.90;;;;;;5028147;28;20235;-82
2022/04/11 01:02:21;;;;;;;7.23;4.30;;;4.20;99.90;;;;;;5025687;28;20195;-82
2022/04/11 01:04:48;;;;;;;6.47;4.10;;;4.20;99.90;;;;;;5027901;28;20206;-81
2022/04/11 01:07:16;;;;;;;4.47;3.90;;;4.20;99.90;;;;;;5023938;28;20217;-79
2022/04/11 01:09:43;;;;;;;8.00;4.60;;;4.20;99.90;;;;;;5008321;28;20207;-79
2022/04/11 01:12:11;;;;;;;7.03;5.03;;;4.20;99.90;;;;;;5007952;28;20195;-79
2022/04/11 01:14:38;;;;;;;7.67;4.83;;;4.20;99.90;;;;;;5009795;28;20993;-82
2022/04/11 01:17:05;;;;;;;8.70;5.07;;;4.20;99.90;;;;;;5032919;28;20195;-83
2022/04/11 01:19:32;;;;;;;7.17;5.10;;;4.10;99.90;;;;;;5033015;28;20191;-82
2022/04/11 01:22:00;;;;;;;7.23;4.83;;;4.10;99.90;;;;;;5032762;28;20203;-82
2022/04/11 01:24:29;;;;;;;7.40;5.17;;;4.10;99.90;;;;;;5028595;28;20215;-82
2022/04/11 01:26:56;;;;;;;8.30;5.60;;;4.10;99.90;;;;;;5013712;28;20214;-83
2022/04/11 01:29:23;;;;;;;9.60;5.87;;;4.10;99.90;;;;;;5024651;28;20487;-81
2022/04/11 01:31:50;;;;;;;7.67;5.20;;;4.10;99.90;;;;;;5035969;28;20203;-82
2022/04/11 01:34:16;;;;;;;8.63;6.30;;;4.10;99.90;;;;;;5036099;28;20234;-81
2022/04/11 01:36:43;;;;;;;10.03;6.07;;;4.00;99.90;;;;;;5052141;28;20183;-82
2022/04/11 01:39:11;;;;;;;7.30;6.07;;;4.10;99.90;;;;;;5050770;28;20208;-82
2022/04/11 01:41:38;;;;;;;10.63;5.90;;;4.00;99.90;;;;;;5046246;28;20207;-82
2022/04/11 01:44:06;;;;;;;7.30;5.70;;;4.00;99.90;;;;;;5045724;28;20203;-81
2022/04/11 01:46:32;;;;;;;7.83;6.27;;;4.00;99.90;;;;;;5034800;28;20213;-79
2022/04/11 01:48:59;;;;;;;9.13;6.93;;;4.00;99.90;;;;;;5027877;28;20214;-82
2022/04/11 01:51:26;;;;;;;9.00;6.33;;;4.00;99.90;;;;;;5028370;28;20206;-81
2022/04/11 01:53:53;;;;;;;11.77;8.30;;;4.00;99.90;;;;;;5028548;28;20666;-78
2022/04/11 01:56:21;;;;;;;6.53;5.73;;;4.00;99.90;;;;;;5027560;28;20218;-82
2022/04/11 01:58:47;;;;;;;7.03;5.97;;;4.00;99.90;;;;;;5021359;28;20246;-82
2022/04/11 02:01:17;;;;;;;9.00;6.30;;;4.00;99.90;;;;;;5008652;28;20211;-79
2022/04/11 02:03:44;;;;;;;13.83;8.97;;;4.00;99.90;;;;;;5009287;28;20203;-81
2022/04/11 02:06:11;;;;;;;9.60;7.70;;;4.00;99.90;;;;;;5009081;28;20214;-80
2022/04/11 02:08:38;;;;;;;13.93;8.33;;;4.00;99.90;;;;;;5009120;28;20221;-78
2022/04/11 02:11:05;;;;;;;9.03;7.17;;;4.00;99.90;;;;;;5021693;28;20685;-79
2022/04/11 02:13:33;;;;;;;7.40;6.27;;;4.00;99.90;;;;;;5024133;28;20199;-78
2022/04/11 02:16:00;;;;;;;11.37;7.93;;;4.00;99.90;;;;;;5010447;28;20243;-76
2022/04/11 02:18:27;;;;;;;12.13;8.67;;;4.00;99.90;;;;;;5005607;28;20215;-76
2022/04/11 02:20:53;;;;;;;11.00;6.83;;;4.00;99.90;;;;;;5004979;28;20372;-78
2022/04/11 02:23:20;;;;;;;8.27;6.47;;;4.00;99.90;;;;;;5005784;28;20207;-77
2022/04/11 02:25:47;;;;;;;9.53;7.57;;;4.00;99.90;;;;;;5004955;28;20202;-77
2022/04/11 02:28:13;;;;;;;11.43;8.13;;;4.00;99.90;;;;;;5004969;28;20607;-77
2022/04/11 02:30:42;;;;;;;7.80;6.67;;;4.00;99.90;;;;;;5005081;28;20218;-77
2022/04/11 02:33:09;;;;;;;13.13;8.43;;;3.90;99.90;;;;;;5004148;28;20207;-76
2022/04/11 02:35:36;;;;;;;11.20;8.40;;;3.90;99.90;;;;;;5004332;28;20223;-76
2022/04/11 02:38:02;;;;;;;9.07;7.20;;;3.90;99.90;;;;;;5004564;28;20211;-76
2022/04/11 02:40:29;;;;;;;9.33;7.67;;;3.90;99.90;;;;;;5004888;28;20261;-78
2022/04/11 02:42:56;;;;;;;15.53;10.57;;;3.90;99.90;;;;;;5004957;28;20208;-77
2022/04/11 02:45:23;;;;;;;9.13;6.70;;;3.90;99.90;;;;;;5005657;28;20215;-76
2022/04/11 02:47:51;;;;;;;11.50;7.60;;;3.90;99.90;;;;;;5004289;28;20266;-77
2022/04/11 02:50:18;;;;;;;13.97;9.37;;;3.90;99.90;;;;;;5004996;28;20792;-77
2022/04/11 02:52:44;;;;;;;10.47;8.30;;;3.90;99.90;;;;;;5004420;28;20214;-77
2022/04/11 02:55:11;;;;;;;13.43;10.10;;;3.90;99.90;;;;;;5004359;28;20238;-78
2022/04/11 02:57:38;;;;;;;15.77;9.90;;;3.90;99.90;;;;;;5004635;28;20195;-79
2022/04/11 03:00:07;;;;;;;12.07;9.80;;;3.90;99.90;;;;;;4984534;28;20212;-77
2022/04/11 03:02:34;;;;;;;14.30;10.30;;;3.90;99.90;;;;;;4985023;28;20210;-78
2022/04/11 03:05:02;;;;;;;12.90;9.40;;;3.90;99.90;;;;;;4984849;28;20309;-77
2022/04/11 03:07:29;;;;;;;12.83;9.20;;;3.90;99.90;;;;;;4984912;28;20207;-78
2022/04/11 03:09:56;;;;;;;13.17;9.70;;;4.00;99.90;;;;;;4984607;28;20710;-78
2022/04/11 03:12:23;;;;;;;13.27;9.50;;;4.00;99.90;;;;;;4984266;28;20828;-77
2022/04/11 03:14:50;;;;;;;11.83;8.63;;;4.00;99.90;;;;;;4984700;28;20246;-78
2022/04/11 03:17:17;;;;;;;13.07;9.50;;;4.00;99.90;;;;;;4984675;28;20204;-77
2022/04/11 03:19:44;;;;;;;10.27;8.53;;;4.00;99.90;;;;;;4984596;28;20204;-76
2022/04/11 03:22:13;;;;;;;17.23;11.90;;;4.10;99.90;;;;;;4984404;28;20208;-76
2022/04/11 03:24:40;;;;;;;13.37;9.53;;;4.10;99.90;;;;;;4985816;28;20675;-77
2022/04/11 03:27:06;;;;;;;13.73;8.53;;;4.10;99.90;;;;;;4989052;28;20238;-77
2022/04/11 03:29:33;;;;;;;9.50;7.37;;;4.10;99.90;;;;;;4987638;28;20207;-76
2022/04/11 03:32:01;;;;;;;12.23;7.80;;;4.20;99.90;;;;;;4988827;28;20215;-76
2022/04/11 03:34:27;;;;;;;10.63;6.80;;;4.20;99.90;;;;;;4987932;28;20220;-77
2022/04/11 03:36:54;;;;;;;8.30;6.93;;;4.20;99.90;;;;;;4988364;28;20218;-78
2022/04/11 03:39:22;;;;;;;10.60;7.43;;;4.20;99.90;;;;;;4988181;28;20208;-78
2022/04/11 03:41:49;;;;;;;10.17;6.90;;;4.30;99.90;;;;;;4988363;28;20199;-77
2022/04/11 03:44:16;;;;;;;9.40;5.93;;;4.30;99.90;;;;;;4988509;28;20208;-77
2022/04/11 03:46:43;;;;;;;8.50;6.00;;;4.30;99.90;;;;;;4988552;28;20625;-77
2022/04/11 03:49:09;;;;;;;8.03;5.83;;;4.30;99.90;;;;;;5004110;28;20529;-77
2022/04/11 03:51:36;;;;;;;7.57;6.10;;;4.40;99.90;;;;;;4993889;28;20302;-77
2022/04/11 03:54:03;;;;;;;6.70;5.37;;;4.40;99.90;;;;;;4987869;28;20208;-77
2022/04/11 03:56:31;;;;;;;9.57;6.37;;;4.40;99.90;;;;;;4987266;28;20223;-76
2022/04/11 03:58:58;;;;;;;7.60;6.47;;;4.40;99.90;;;;;;4999006;28;20238;-77
2022/04/11 04:01:25;;;;;;;8.27;6.23;;;4.50;99.90;;;;;;5014804;28;20221;-77
2022/04/11 04:03:52;;;;;;;9.33;6.50;;;4.50;99.90;;;;;;5026529;28;20261;-79
2022/04/11 04:06:19;;;;;;;8.87;6.30;;;4.50;99.90;;;;;;5027591;28;20770;-76
2022/04/11 04:08:47;;;;;;;11.23;7.10;;;4.60;99.90;;;;;;5016944;28;20219;-77
2022/04/11 04:11:13;;;;;;;8.13;6.13;;;4.60;99.90;;;;;;5006337;28;20210;-77
2022/04/11 04:13:42;;;;;;;12.03;8.40;;;4.60;99.90;;;;;;5013760;28;20325;-78
2022/04/11 04:16:08;;;;;;;13.30;8.77;;;4.70;99.90;;;;;;5018513;28;20559;-77
2022/04/11 04:18:35;;;;;;;12.70;8.33;;;4.70;99.90;;;;;;5019778;28;20225;-77
2022/04/11 04:21:02;;;;;;;11.97;8.47;;;4.80;99.90;;;;;;5020061;28;20792;-78
2022/04/11 04:23:29;;;;;;;10.77;7.70;;;4.70;99.90;;;;;;5017821;28;20214;-76
2022/04/11 04:25:56;;;;;;;14.00;8.20;;;4.80;99.90;;;;;;5018818;28;20422;-76
2022/04/11 04:28:23;;;;;;;12.77;8.83;;;4.80;99.90;;;;;;5021915;28;20220;-78
2022/04/11 04:30:51;;;;;;;16.50;9.83;;;4.80;99.90;;;;;;5021484;28;20534;-79
2022/04/11 04:33:18;;;;;;;10.60;8.07;;;4.80;99.90;;;;;;5015884;28;20882;-77
2022/04/11 04:35:45;;;;;;;11.47;8.00;;;4.90;99.90;;;;;;5022401;28;20218;-77
2022/04/11 04:38:12;;;;;;;11.50;8.13;;;4.90;99.90;;;;;;5018095;28;20203;-77
2022/04/11 04:40:39;;;;;;;9.43;7.30;;;4.90;99.90;;;;;;5019915;28;20213;-76
2022/04/11 04:43:06;;;;;;;10.77;8.00;;;4.90;99.90;;;;;;5020851;28;20211;-76
2022/04/11 04:45:33;;;;;;;10.47;7.07;;;4.90;99.90;;;;;;5015741;28;20218;-77
2022/04/11 04:48:01;;;;;;;8.43;7.27;;;4.90;99.90;;;;;;5014719;28;20215;-78
2022/04/11 04:50:28;;;;;;;9.03;7.43;;;4.90;99.90;;;;;;5016121;28;20242;-79
2022/04/11 04:52:54;;;;;;;10.57;8.03;;;4.90;99.90;;;;;;5012177;28;20219;-77
2022/04/11 04:55:22;;;;;;;11.53;9.20;;;5.00;99.90;;;;;;5016057;28;20704;-77
2022/04/11 04:57:49;;;;;;;8.63;7.07;;;4.90;99.90;;;;;;5016959;28;20210;-77
2022/04/11 05:00:17;;;;;;;9.03;7.50;;;5.00;99.90;;;;;;5025979;28;20213;-78
2022/04/11 05:02:43;;;;;;;11.43;7.60;;;5.00;99.90;;;;;;5010713;28;20215;-77
2022/04/11 05:05:13;;;;;;;13.07;8.80;;;5.00;99.90;;;;;;5007141;28;20207;-76
2022/04/11 05:07:40;;;;;;;9.57;7.17;;;5.00;99.90;;;;;;5005520;28;20207;-77
2022/04/11 05:10:08;;;;;;;8.87;6.30;;;5.00;99.90;;;;;;5006225;28;20217;-77
2022/04/11 05:12:42;;;;;;;10.57;7.30;;;5.10;99.90;;;;;;5006572;28;20215;-76
2022/04/11 05:15:10;;;;;;;9.77;7.03;;;5.10;99.90;;;;;;4989011;28;20325;-76
2022/04/11 05:17:37;;;;;;;11.00;7.13;;;5.10;99.90;;;;;;5006527;28;20603;-77
2022/04/11 05:20:05;;;;;;;7.00;6.30;;;5.10;99.90;;;;;;5005804;28;20199;-78
2022/04/11 05:22:33;;;;;;;9.67;6.40;;;5.20;99.90;;;;;;5006206;28;20207;-77
2022/04/11 05:25:00;;;;;;;11.67;6.70;;;5.20;99.90;;;;;;5005724;28;20230;-76
2022/04/11 05:27:27;;;;;;;8.13;6.23;;;5.20;99.90;;;;;;5005962;28;20207;-76
2022/04/11 05:29:54;;;;;;;10.70;6.70;;;5.20;99.90;;;;;;5005600;28;20266;-76
2022/04/11 05:32:21;;;;;;;8.77;6.80;;;5.20;99.90;;;;;;5006010;28;20227;-77
2022/04/11 05:34:47;;;;;;;13.00;7.67;;;5.30;99.90;;;;;;5005031;28;20249;-78
2022/04/11 05:37:15;;;;;;;8.17;6.33;;;5.30;99.90;;;;;;5005817;28;20238;-78
2022/04/11 05:39:43;;;;;;;8.20;6.93;;;5.40;99.90;;;;;;5006415;28;20203;-77
2022/04/11 05:42:10;;;;;;;11.20;6.30;;;5.40;99.90;;;;;;5008100;28;20199;-80
2022/04/11 05:44:37;;;;;;;10.97;7.13;;;5.50;99.90;;;;;;5007815;28;20358;-81
2022/04/11 05:47:04;;;;;;;14.50;7.57;;;5.60;99.90;;;;;;5007979;28;20207;-81
2022/04/11 05:49:31;;;;;;;8.27;6.60;;;5.60;99.90;;;;;;5015395;28;20214;-82
2022/04/11 05:51:58;;;;;;;11.97;7.13;;;5.60;99.90;;;;;;5007973;28;20200;-78
2022/04/11 05:54:25;;;;;;;13.17;7.87;;;5.70;99.90;;;;;;5007911;28;20210;-81
2022/04/11 05:56:55;;;;;;;16.80;8.67;;;5.80;99.90;;;;;;5008691;28;20230;-78
2022/04/11 05:59:22;;;;;;;12.70;8.27;;;5.80;99.90;;;;;;5008403;28;20576;-78
2022/04/11 06:01:48;;;;;;;13.63;8.83;;;5.90;99.90;;;;;;5012137;28;20865;-78
2022/04/11 06:04:15;;;;;;;13.23;9.67;;;6.00;99.90;;;;;;5027446;28;20499;-81
2022/04/11 06:06:42;;;;;;;15.80;10.30;;;6.10;99.90;;;;;;5027414;28;20500;-79
2022/04/11 06:09:09;;;;;;;11.80;9.37;;;6.20;99.90;;;;;;5027592;28;20806;-79
2022/04/11 06:11:35;;;;;;;17.67;11.30;;;6.20;99.90;;;;;;5015675;28;20731;-81
2022/04/11 06:14:03;;;;;;;14.20;10.57;;;6.30;99.90;;;;;;5006793;28;20207;-80
2022/04/11 06:16:30;;;;;;;14.57;10.40;;;6.30;99.90;;;;;;5020390;28;20226;-80
2022/04/11 06:18:57;;;;;;;16.67;11.67;;;6.40;99.90;;;;;;5026314;28;20211;-78
2022/04/11 06:21:24;;;;;;;18.20;12.80;;;6.50;99.90;;;;;;5014503;28;20226;-79
2022/04/11 06:23:51;;;;;;;14.00;10.70;;;6.50;99.90;;;;;;5006517;28;20203;-80
2022/04/11 06:26:18;;;;;;;13.80;11.13;;;6.50;99.90;;;;;;5005935;28;20234;-80
2022/04/11 06:28:44;;;;;;;18.03;13.10;;;6.50;99.90;;;;;;5007025;28;20626;-80
2022/04/11 06:31:14;;;;;;;26.20;17.90;;;6.60;99.90;;;;;;5006431;28;20208;-79
2022/04/11 06:33:41;;;;;;;25.97;17.03;;;6.60;99.90;;;;;;5006612;28;20725;-79
2022/04/11 06:36:09;;;;;;;22.93;16.97;;;6.70;99.90;;;;;;4975821;28;20226;-79
2022/04/11 06:38:36;;;;;;;22.40;18.07;;;6.80;99.90;;;;;;5006289;28;20199;-79
2022/04/11 06:41:03;;;;;;;27.40;18.70;;;6.90;99.90;;;;;;5005937;28;20541;-79
2022/04/11 06:43:31;;;;;;;17.40;15.00;;;7.00;99.90;;;;;;5026241;22;20355;-78
2022/04/11 06:45:58;;;;;;;25.10;16.67;;;7.10;99.90;;;;;;5025846;28;20213;-78
2022/04/11 06:48:26;;;;;;;22.23;14.20;;;7.20;99.90;;;;;;5009216;28;20833;-78
2022/04/11 06:50:53;;;;;;;18.00;14.83;;;7.30;99.90;;;;;;5002275;28;20204;-78
2022/04/11 06:53:21;;;;;;;14.03;12.53;;;7.40;99.90;;;;;;5006587;28;20737;-82
2022/04/11 06:55:48;;;;;;;21.50;12.33;;;7.50;99.90;;;;;;5005170;28;20238;-78
2022/04/11 06:58:16;;;;;;;21.00;13.40;;;7.70;99.90;;;;;;5004043;28;20207;-78
2022/04/11 07:00:42;;;;;;;17.73;11.73;;;7.80;99.90;;;;;;5003911;28;20885;-77
2022/04/11 07:03:09;;;;;;;21.00;12.17;;;7.90;99.90;;;;;;5005105;28;20860;-79
2022/04/11 07:05:38;;;;;;;17.90;11.20;;;7.90;99.90;;;;;;5007113;28;20202;-78
2022/04/11 07:08:05;;;;;;;16.80;11.13;;;8.00;99.90;;;;;;5024003;28;20202;-76
2022/04/11 07:10:32;;;;;;;18.83;13.07;;;8.10;99.90;;;;;;5023767;28;20198;-80
2022/04/11 07:12:59;;;;;;;18.57;12.30;;;8.20;99.90;;;;;;5018226;28;20211;-78
2022/04/11 07:15:26;;;;;;;17.37;11.67;;;8.30;99.90;;;;;;5004594;28;20199;-79
2022/04/11 07:17:53;;;;;;;17.20;12.87;;;8.30;99.90;;;;;;5004288;28;20214;-77
2022/04/11 07:20:20;;;;;;;17.20;11.83;;;8.40;99.90;;;;;;5003055;28;20200;-77
2022/04/11 07:22:48;;;;;;;20.47;12.53;;;8.50;99.90;;;;;;5002094;28;20215;-77
2022/04/11 07:25:15;;;;;;;17.17;12.20;;;8.70;99.90;;;;;;5002451;28;20281;-77
2022/04/11 07:27:42;;;;;;;17.00;10.97;;;8.80;99.90;;;;;;5003388;28;20207;-78
2022/04/11 07:30:10;;;;;;;17.40;11.27;;;9.00;99.90;;;;;;5003903;28;20619;-78
2022/04/11 07:32:38;;;;;;;16.27;9.90;;;9.20;99.90;;;;;;5004336;28;20211;-81
2022/04/11 07:35:06;;;;;;;15.33;9.83;;;9.40;99.90;;;;;;5005179;28;20237;-80
2022/04/11 07:37:33;;;;;;;22.47;11.90;;;9.50;99.90;;;;;;5004167;28;20231;-79
2022/04/11 07:40:02;;;;;;;19.00;11.40;;;9.70;99.90;;;;;;5004290;28;20215;-78
2022/04/11 07:42:29;;;;;;;13.30;9.87;;;9.80;99.90;;;;;;5002957;28;20239;-80
2022/04/11 07:44:56;;;;;;;17.13;10.70;;;10.00;99.90;;;;;;5003689;28;20199;-78
2022/04/11 07:47:23;;;;;;;16.83;11.70;;;10.20;99.90;;;;;;5004548;28;20207;-79
2022/04/11 07:49:50;;;;;;;14.30;9.97;;;10.20;99.90;;;;;;5003318;28;20218;-78
2022/04/11 07:52:17;;;;;;;15.20;9.63;;;10.40;99.90;;;;;;5002976;28;20219;-78
2022/04/11 07:54:44;;;;;;;16.97;9.63;;;10.50;99.90;;;;;;5003195;28;20214;-78
2022/04/11 07:57:13;;;;;;;13.83;9.67;;;10.60;99.90;;;;;;5003973;28;20231;-78
2022/04/11 07:59:40;;;;;;;13.30;9.13;;;10.70;99.90;;;;;;5003213;28;20234;-79
2022/04/11 08:02:07;;;;;;;10.57;8.87;;;10.90;99.90;;;;;;5002533;28;20857;-79
2022/04/11 08:04:34;;;;;;;10.60;8.27;;;11.10;99.90;;;;;;5004180;28;20220;-81
2022/04/11 08:07:02;;;;;;;12.33;8.77;;;11.20;99.90;;;;;;5003993;28;20701;-79
2022/04/11 08:09:29;;;;;;;15.10;8.90;;;11.40;99.90;;;;;;5002684;28;20307;-81
2022/04/11 08:11:56;;;;;;;11.77;7.90;;;11.70;99.90;;;;;;5005634;28;20218;-79
2022/04/11 08:14:24;;;;;;;11.37;8.23;;;12.00;99.90;;;;;;5006679;28;20215;-78
2022/04/11 08:16:51;;;;;;;11.90;7.80;;;12.20;99.90;;;;;;5006181;28;20239;-79
2022/04/11 08:19:18;;;;;;;12.50;6.70;;;12.50;99.90;;;;;;5006509;28;20211;-79
2022/04/11 08:21:44;;;;;;;11.33;6.30;;;12.70;99.90;;;;;;5007016;28;20207;-78
2022/04/11 08:24:12;;;;;;;13.10;7.57;;;12.80;99.90;;;;;;5006128;28;20214;-78
2022/04/11 08:26:41;;;;;;;11.73;7.53;;;13.00;99.90;;;;;;5006853;28;20253;-78
2022/04/11 08:29:08;;;;;;;9.33;6.60;;;13.30;99.90;;;;;;5006912;28;20222;-78
2022/04/11 08:31:36;;;;;;;12.10;7.60;;;13.70;99.90;;;;;;5005446;28;20211;-78
2022/04/11 08:34:03;;;;;;;15.43;8.17;;;13.80;99.90;;;;;;5006787;28;20643;-79
2022/04/11 08:36:30;;;;;;;11.10;6.50;;;13.90;99.90;;;;;;5006503;28;20230;-79
2022/04/11 08:38:57;;;;;;;15.10;7.40;;;14.10;99.90;;;;;;5006763;28;20215;-79
2022/04/11 08:41:30;;;;;;;10.00;6.70;;;14.30;99.90;;;;;;5006870;28;20238;-78
2022/04/11 08:43:57;;;;;;;12.17;7.03;;;14.50;99.90;;;;;;5006072;28;20239;-79
2022/04/11 08:46:26;;;;;;;11.87;7.40;;;14.80;99.90;;;;;;5006325;28;20211;-79
2022/04/11 08:48:54;;;;;;;9.63;6.97;;;15.00;99.90;;;;;;5021035;28;20206;-79
2022/04/11 08:51:21;;;;;;;8.83;6.53;;;15.20;99.90;;;;;;5008769;28;20221;-79
2022/04/11 08:53:48;;;;;;;8.63;6.70;;;15.40;99.90;;;;;;5006249;28;20849;-79
2022/04/11 08:56:15;;;;;;;12.33;6.37;;;15.40;99.90;;;;;;5006339;28;20227;-78
2022/04/11 08:58:42;;;;;;;14.80;6.87;;;15.40;99.90;;;;;;5006396;28;20203;-79
2022/04/11 09:01:09;;;;;;;11.48;6.68;;;15.50;99.90;;;;;;5006347;28;20199;-79
2022/04/11 09:03:36;;;;;;;8.53;5.50;;;15.40;99.90;;;;;;5006084;28;20278;-78
2022/04/11 09:06:08;;;;;;;10.53;5.10;;;15.60;99.90;;;;;;5005930;28;20203;-79
2022/04/11 09:08:40;;;;;;;13.30;6.13;;;15.80;99.90;;;;;;5006037;28;20268;-79
2022/04/11 09:11:06;;;;;;;9.82;5.15;;;16.10;99.90;;;;;;5006281;28;20215;-79
2022/04/11 09:13:48;;;;;;;9.35;5.60;;;16.00;99.90;;;;;;5005544;28;20207;-79
2022/04/11 09:16:15;;;;;;;13.60;5.90;;;15.60;99.90;;;;;;5005966;28;20311;-79
2022/04/11 09:18:49;;;;;;;10.03;5.13;;;15.50;99.90;;;;;;5006310;28;20217;-79
2022/04/11 09:21:18;;;;;;;13.60;5.73;;;15.70;99.90;;;;;;5005245;28;20630;-79
2022/04/11 09:23:45;;;;;;;8.10;5.10;;;15.70;99.90;;;;;;5004642;28;20214;-78
2022/04/11 09:26:19;;;;;;;12.32;5.85;;;15.90;99.90;;;;;;5005384;28;20489;-80
2022/04/11 09:29:00;;;;;;;7.25;5.03;;;16.10;99.90;;;;;;5006769;28;20210;-77
2022/04/11 09:31:27;;;;;;;12.27;5.43;;;16.30;99.90;;;;;;5005417;28;20202;-77
2022/04/11 09:33:54;;;;;;;12.52;5.68;;;16.10;99.90;;;;;;5005176;28;20219;-78
2022/04/11 09:36:22;;;;;;;11.50;5.43;;;16.40;99.90;;;;;;5005069;28;20215;-78
2022/04/11 09:38:59;;;;;;;8.07;4.35;;;16.30;99.90;;;;;;5005823;28;20211;-78
2022/04/11 09:41:30;;;;;;;6.80;4.78;;;16.20;99.90;;;;;;5004852;28;20227;-79
2022/04/11 09:43:57;;;;;;;10.32;4.95;;;16.40;99.90;;;;;;5005696;28;20235;-79
2022/04/11 09:46:24;;;;;;;6.82;4.82;;;16.40;99.90;;;;;;5005565;28;20254;-79
2022/04/11 09:48:54;;;;;;;9.07;4.60;;;16.30;99.90;;;;;;5018630;28;20207;-79
2022/04/11 09:51:22;;;;;;;6.22;4.70;;;16.50;99.90;;;;;;5008215;28;20218;-77
2022/04/11 09:53:49;;;;;;;7.38;5.45;;;16.80;99.90;;;;;;5020523;28;20222;-77
2022/04/11 09:56:19;;;;;;;8.10;5.55;;;16.80;99.90;;;;;;5003897;28;20206;-77
2022/04/11 09:58:48;;;;;;;8.05;5.20;;;16.90;99.90;;;;;;5004987;28;20196;-78
2022/04/11 10:01:16;;;;;;;7.60;4.97;;;17.10;99.90;;;;;;5003874;28;20558;-79
2022/04/11 10:03:43;;;;;;;8.65;4.82;;;17.10;99.90;;;;;;5005581;28;20207;-77
2022/04/11 10:06:13;;;;;;;8.02;5.18;;;17.10;99.90;;;;;;5004302;28;20207;-78
2022/04/11 10:08:42;;;;;;;7.40;4.57;;;17.20;99.90;;;;;;5004073;28;20200;-79
2022/04/11 10:11:09;;;;;;;8.52;5.43;;;17.20;99.90;;;;;;5004275;28;20514;-79
2022/04/11 10:13:37;;;;;;;11.07;5.50;;;17.20;99.90;;;;;;5010515;28;20234;-78
2022/04/11 10:16:07;;;;;;;9.68;5.80;;;17.00;99.90;;;;;;5004393;28;20677;-84
2022/04/11 10:18:35;;;;;;;6.93;5.03;;;16.70;99.90;;;;;;5005190;28;20226;-79
2022/04/11 10:21:05;;;;;;;7.97;4.97;;;16.90;99.90;;;;;;5024610;28;20420;-80
2022/04/11 10:23:35;;;;;;;6.35;3.92;;;17.10;99.90;;;;;;5023418;28;20301;-79
2022/04/11 10:26:16;;;;;;;6.72;4.47;;;17.30;99.90;;;;;;5012441;28;20214;-76
2022/04/11 10:28:45;;;;;;;9.40;5.05;;;17.60;99.90;;;;;;5003887;28;20207;-79
2022/04/11 10:31:13;;;;;;;8.38;5.10;;;17.80;99.90;;;;;;5003166;28;20269;-79
2022/04/11 10:33:41;;;;;;;8.18;5.25;;;18.00;99.90;;;;;;5011085;28;20318;-78
2022/04/11 10:36:30;;;;;;;8.63;5.45;;;18.00;99.90;;;;;;5016115;28;20517;-77
2022/04/11 10:39:24;;;;;;;6.93;4.57;;;18.20;99.90;;;;;;5006394;28;20922;-78
2022/04/11 10:42:26;;;;;;;8.93;6.30;;;18.30;99.90;;;;;;5003125;28;20203;-78
2022/04/11 10:44:54;;;;;;;9.48;5.80;;;18.00;99.90;;;;;;5009518;28;20936;-77
2022/04/11 10:47:32;;;;;;;8.85;6.20;;;17.90;99.90;;;;;;5023325;28;20769;-78
2022/04/11 10:50:38;;;;;;;7.38;5.68;;;18.00;99.90;;;;;;5012105;28;20847;-77
2022/04/11 10:53:10;;;;;;;8.57;6.40;;;18.00;99.90;;;;;;5004296;28;20213;-78
2022/04/11 10:55:54;;;;;;;8.23;5.55;;;18.00;99.90;;;;;;5003777;28;20207;-78
2022/04/11 10:58:23;;;;;;;7.22;5.63;;;17.80;99.90;;;;;;5022619;28;20325;-78
2022/04/11 11:00:51;;;;;;;6.53;5.10;;;17.60;99.90;;;;;;5023930;28;20203;-77
2022/04/11 11:03:19;;;;;;;9.90;6.28;;;17.90;99.90;;;;;;5023067;28;20850;-78
2022/04/11 11:05:48;;;;;;;9.27;6.40;;;17.80;99.90;;;;;;5015544;28;20210;-77
2022/04/11 11:08:32;;;;;;;8.00;6.25;;;17.80;99.90;;;;;;5003762;28;20202;-77
2022/04/11 11:11:00;;;;;;;9.60;7.05;;;17.80;99.90;;;;;;5004339;28;20230;-82
2022/04/11 11:13:31;;;;;;;10.02;6.80;;;18.00;99.90;;;;;;5002825;28;20203;-78
2022/04/11 11:16:00;;;;;;;10.05;5.63;;;18.30;99.90;;;;;;5003547;28;20207;-78
2022/04/11 11:18:28;;;;;;;9.65;6.05;;;18.40;99.90;;;;;;5003369;28;20245;-77
2022/04/11 11:20:57;;;;;;;7.65;6.57;;;18.70;99.90;;;;;;5004110;28;20214;-79
2022/04/11 11:23:27;;;;;;;10.77;6.75;;;18.60;99.90;;;;;;5003417;28;20305;-80
2022/04/11 11:25:55;;;;;;;9.35;7.15;;;18.50;99.90;;;;;;5002790;28;20211;-80
2022/04/11 11:28:23;;;;;;;11.77;7.28;;;18.20;99.90;;;;;;5004012;28;20195;-79
2022/04/11 11:30:51;;;;;;;9.80;7.10;;;18.00;99.90;;;;;;5003561;28;20203;-77
2022/04/11 11:33:19;;;;;;;10.70;7.55;;;17.90;99.90;;;;;;5003068;28;20210;-78
2022/04/11 11:35:51;;;;;;;9.60;6.25;;;17.90;99.90;;;;;;5004538;28;20191;-77
2022/04/11 11:38:22;;;;;;;10.05;7.32;;;18.20;99.90;;;;;;5004147;28;20234;-77
2022/04/11 11:40:54;;;;;;;9.85;6.97;;;18.40;99.90;;;;;;5004095;28;20214;-79
2022/04/11 11:43:21;;;;;;;9.43;7.13;;;18.10;99.90;;;;;;5003498;28;20287;-77
2022/04/11 11:45:48;;;;;;;8.77;7.40;;;18.10;99.90;;;;;;5006239;28;20211;-78
2022/04/11 11:48:35;;;;;;;9.13;7.00;;;18.10;99.90;;;;;;5012894;28;20210;-77
2022/04/11 11:51:03;;;;;;;10.55;7.72;;;18.30;99.90;;;;;;5007899;28;20207;-78
2022/04/11 11:53:41;;;;;;;11.18;7.75;;;18.20;99.90;;;;;;5019450;28;20214;-78
2022/04/11 11:56:08;;;;;;;10.68;7.15;;;17.80;99.90;;;;;;5028164;28;20202;-78
2022/04/11 11:58:36;;;;;;;8.80;7.65;;;17.90;99.90;;;;;;5020764;28;20243;-77
2022/04/11 12:01:04;;;;;;;10.55;7.85;;;18.00;99.90;;;;;;5006897;28;20516;-79
2022/04/11 12:06:24;;;;;;;8.73;7.47;;;17.70;99.90;;;;;;5007978;28;20204;-78
2022/04/11 12:08:55;;;;;;;10.40;8.05;;;17.80;99.90;;;;;;5006404;28;20192;-78
2022/04/11 12:11:23;;;;;;;9.60;7.75;;;18.00;99.90;;;;;;5027261;28;20297;-77
2022/04/11 12:13:49;;;;;;;8.32;7.47;;;18.20;99.90;;;;;;5034168;22;20242;-77
2022/04/11 12:16:17;;;;;;;8.52;6.70;;;18.20;99.90;;;;;;5023324;28;20303;-78
2022/04/11 12:18:53;;;;;;;8.63;6.85;;;18.20;99.90;;;;;;5006489;28;20227;-78
2022/04/11 12:21:30;;;;;;;9.48;7.28;;;18.40;99.90;;;;;;5006831;28;20202;-79
2022/04/11 12:23:57;;;;;;;10.20;7.72;;;18.60;99.90;;;;;;5025976;28;20202;-78
2022/04/11 12:26:29;;;;;;;9.88;7.60;;;18.40;99.90;;;;;;5007682;28;20226;-78
2022/04/11 12:28:56;;;;;;;10.40;8.00;;;18.40;99.90;;;;;;5006792;28;20203;-78
2022/04/11 12:31:23;;;;;;;8.10;7.30;;;18.10;99.90;;;;;;5007289;28;20207;-79
2022/04/11 12:33:52;;;;;;;10.88;6.90;;;18.10;99.90;;;;;;5007363;28;20234;-79
2022/04/11 12:36:22;;;;;;;9.40;8.07;;;18.20;99.90;;;;;;5006443;28;20206;-78
2022/04/11 12:38:51;;;;;;;9.63;8.57;;;18.00;99.90;;;;;;5007231;28;20947;-77
2022/04/11 12:41:34;;;;;;;10.57;8.57;;;17.90;99.90;;;;;;5007522;28;20211;-79
2022/04/11 12:44:11;;;;;;;10.18;7.88;;;17.70;99.90;;;;;;5006447;28;20577;-77
2022/04/11 12:46:40;;;;;;;11.60;8.43;;;17.50;99.90;;;;;;5007549;28;20210;-78
2022/04/11 12:49:07;;;;;;;8.50;7.70;;;17.70;99.90;;;;;;5022546;28;20207;-79
2022/04/11 12:51:36;;;;;;;11.52;9.10;;;17.90;99.90;;;;;;5026651;28;20411;-78
2022/04/11 12:54:05;;;;;;;10.65;8.20;;;17.90;99.90;;;;;;5022713;28;20249;-78